createdAt,value
2024-04-18T00:00:17.411Z,98583.27
2024-04-18T00:03:18.886Z,98583.25
2024-04-18T00:06:20.389Z,98581.73
2024-04-18T00:09:21.821Z,98584.92
2024-04-18T00:12:23.276Z,98585.78
2024-04-18T00:15:25.107Z,98591.17
2024-04-18T00:18:26.693Z,98590.80
2024-04-18T00:21:28.064Z,98593.45
2024-04-18T00:24:29.633Z,98589.65
2024-04-18T00:27:31.097Z,98592.27
2024-04-18T00:30:32.623Z,98589.66
2024-04-18T00:33:34.191Z,98593.46
2024-04-18T00:36:35.820Z,98590.00
2024-04-18T00:39:37.329Z,98593.96
2024-04-18T00:42:39.397Z,98592.20
2024-04-18T00:45:41.034Z,98596.53
2024-04-18T00:48:42.600Z,98594.80
2024-04-18T00:51:44.631Z,98595.19
2024-04-18T00:54:47.385Z,98594.00
2024-04-18T00:57:49.197Z,98597.73
2024-04-18T01:00:51.278Z,98602.52
2024-04-18T01:03:52.945Z,98601.38
2024-04-18T01:06:54.320Z,98601.46
2024-04-18T01:09:55.810Z,98602.19
2024-04-18T01:12:57.973Z,98603.58
2024-04-18T01:15:59.352Z,98605.77
2024-04-18T01:19:00.861Z,98603.79
2024-04-18T01:22:05.070Z,98602.56
2024-04-18T01:25:07.431Z,98605.53
2024-04-18T01:28:08.925Z,98608.14
2024-04-18T01:31:10.368Z,98606.55
2024-04-18T01:34:12.222Z,98607.14
2024-04-18T01:37:13.879Z,98608.40
2024-04-18T01:40:15.251Z,98606.49
2024-04-18T01:43:16.704Z,98606.95
2024-04-18T01:46:20.223Z,98608.52
2024-04-18T01:49:21.669Z,98606.34
2024-04-18T01:52:23.066Z,98602.57
2024-04-18T01:55:24.490Z,98608.08
2024-04-18T01:58:25.907Z,98606.34
2024-04-18T02:01:27.330Z,98601.27
2024-04-18T02:04:28.919Z,98602.60
2024-04-18T02:07:30.403Z,98606.23
2024-04-18T02:10:31.817Z,98607.40
2024-04-18T02:13:33.783Z,98610.92
2024-04-18T02:16:35.312Z,98615.19
2024-04-18T02:19:36.729Z,98610.52
2024-04-18T02:22:38.199Z,98612.27
2024-04-18T02:25:39.769Z,98612.34
2024-04-18T02:28:41.598Z,98609.34
2024-04-18T02:31:42.993Z,98613.96
2024-04-18T02:34:44.406Z,98612.31
2024-04-18T02:37:45.780Z,98615.67
2024-04-18T02:40:47.258Z,98618.59
2024-04-18T02:43:52.985Z,98621.73
2024-04-18T02:46:54.558Z,98622.08
2024-04-18T02:49:55.944Z,98620.36
2024-04-18T02:52:57.326Z,98616.45
2024-04-18T02:55:58.671Z,98617.31
2024-04-18T02:59:00.085Z,98615.02
2024-04-18T03:02:01.469Z,98611.63
2024-04-18T03:05:02.973Z,98611.23
2024-04-18T03:08:04.806Z,98615.92
2024-04-18T03:11:06.215Z,98615.84
2024-04-18T03:14:07.576Z,98613.45
2024-04-18T03:17:09.895Z,98613.20
2024-04-18T03:20:11.301Z,98610.52
2024-04-18T03:23:12.840Z,98612.64
2024-04-18T03:26:14.446Z,98611.95
2024-04-18T03:29:16.239Z,98611.48
2024-04-18T03:32:17.536Z,98612.46
2024-04-18T03:35:18.938Z,98614.91
2024-04-18T03:38:20.272Z,98614.00
2024-04-18T03:41:21.795Z,98621.45
2024-04-18T03:44:23.343Z,98619.83
2024-04-18T03:47:24.823Z,98624.36
2024-04-18T03:50:26.267Z,98627.34
2024-04-18T03:53:27.732Z,98628.13
2024-04-18T03:56:29.130Z,98629.66
2024-04-18T03:59:33.386Z,98633.55
2024-04-18T04:02:34.834Z,98637.31
2024-04-18T04:05:36.338Z,98647.92
2024-04-18T04:08:38.457Z,98649.15
2024-04-18T04:11:39.852Z,98648.59
2024-04-18T04:14:41.291Z,98651.23
2024-04-18T04:17:45.422Z,98653.67
2024-04-18T04:20:46.926Z,98657.13
2024-04-18T04:23:48.599Z,98658.33
2024-04-18T04:26:51.180Z,98658.00
2024-04-18T04:29:52.597Z,98663.82
2024-04-18T04:32:54.075Z,98664.55
2024-04-18T04:35:56.130Z,98673.78
2024-04-18T04:38:57.508Z,98679.73
2024-04-18T04:41:59.114Z,98684.23
2024-04-18T04:45:00.502Z,98682.25
2024-04-18T04:48:01.958Z,98682.22
2024-04-18T04:51:03.449Z,98684.38
2024-04-18T04:54:05.176Z,98688.11
2024-04-18T04:57:06.443Z,98685.25
2024-04-18T05:00:08.524Z,98686.88
2024-04-18T05:03:10.246Z,98690.02
2024-04-18T05:06:11.579Z,98692.41
2024-04-18T05:09:16.658Z,98698.26
2024-04-18T05:12:18.142Z,98697.70
2024-04-18T05:15:20.100Z,98705.56
2024-04-18T05:18:21.525Z,98704.81
2024-04-18T05:21:23.054Z,98704.56
2024-04-18T05:24:24.559Z,98706.62
2024-04-18T05:27:26.044Z,98710.43
2024-04-18T05:30:27.582Z,98717.23
2024-04-18T05:33:29.251Z,98712.95
2024-04-18T05:36:30.609Z,98712.25
2024-04-18T05:39:32.001Z,98706.76
2024-04-18T05:42:33.767Z,98709.71
2024-04-18T05:45:35.392Z,98707.90
2024-04-18T05:48:36.852Z,98710.94
2024-04-18T05:51:38.295Z,98714.56
2024-04-18T05:54:39.855Z,98715.98
2024-04-18T05:57:41.223Z,98716.63
2024-04-18T06:00:43.777Z,98712.33
2024-04-18T06:03:45.292Z,98717.08
2024-04-18T06:06:46.646Z,98720.20
2024-04-18T06:09:48.300Z,98721.40
2024-04-18T06:12:49.865Z,98722.10
2024-04-18T06:15:52.283Z,98719.21
2024-04-18T06:18:55.878Z,98721.77
2024-04-18T06:21:57.417Z,98722.75
2024-04-18T06:24:58.907Z,98729.79
2024-04-18T06:28:00.528Z,98735.42
2024-04-18T06:31:02.147Z,98736.10
2024-04-18T06:34:03.780Z,98730.14
2024-04-18T06:37:08.008Z,98726.88
2024-04-18T06:40:10.006Z,98734.58
2024-04-18T06:43:11.545Z,98732.54
2024-04-18T06:46:12.873Z,98736.86
2024-04-18T06:49:14.225Z,98734.64
2024-04-18T06:52:15.698Z,98740.48
2024-04-18T06:55:17.094Z,98746.70
2024-04-18T06:58:18.503Z,98746.90
2024-04-18T07:01:19.938Z,98749.19
2024-04-18T07:04:21.404Z,98747.86
2024-04-18T07:07:22.872Z,98747.25
2024-04-18T07:10:24.314Z,98740.95
2024-04-18T07:13:25.747Z,98745.02
2024-04-18T07:16:27.188Z,98748.38
2024-04-18T07:19:28.655Z,98746.72
2024-04-18T07:22:30.695Z,98747.23
2024-04-18T07:25:32.606Z,98749.15
2024-04-18T07:28:42.556Z,98749.77
2024-04-18T07:31:44.087Z,98752.77
2024-04-18T07:34:45.512Z,98752.64
2024-04-18T07:37:47.043Z,98751.50
2024-04-18T07:40:48.419Z,98754.46
2024-04-18T07:43:50.457Z,98753.27
2024-04-18T07:46:56.492Z,98749.23
2024-04-18T07:49:57.987Z,98749.34
2024-04-18T07:53:07.646Z,98751.70
2024-04-18T07:56:11.594Z,98752.34
2024-04-18T07:59:14.101Z,98750.45
2024-04-18T08:02:18.343Z,98753.29
2024-04-18T08:05:22.509Z,98746.46
2024-04-18T08:08:28.874Z,98744.58
2024-04-18T08:12:04.122Z,98746.15
2024-04-18T08:14:55.907Z,98739.45
2024-04-18T08:17:59.934Z,98743.79
2024-04-18T08:21:01.524Z,98742.66
2024-04-18T08:24:04.498Z,98741.38
2024-04-18T08:27:07.219Z,98739.01
2024-04-18T08:30:09.339Z,98732.06
2024-04-18T08:33:12.409Z,98731.17
2024-04-18T08:36:13.891Z,98728.52
2024-04-18T08:39:15.840Z,98728.03
2024-04-18T08:42:22.807Z,98721.17
2024-04-18T08:45:26.787Z,98720.35
2024-04-18T08:48:30.540Z,98722.73
2024-04-18T08:51:34.581Z,98725.33
2024-04-18T08:54:38.583Z,98728.43
2024-04-18T08:58:02.906Z,98730.40
2024-04-18T09:01:15.021Z,98731.02
2024-04-18T09:04:18.618Z,98726.02
2024-04-18T09:07:28.670Z,98722.29
2024-04-18T09:10:30.841Z,98722.16
2024-04-18T09:13:32.324Z,98720.02
2024-04-18T09:16:34.011Z,98713.35
2024-04-18T09:19:35.528Z,98715.73
2024-04-18T09:22:36.956Z,98711.70
2024-04-18T09:25:45.840Z,98716.08
2024-04-18T09:28:50.870Z,98714.59
2024-04-18T09:32:26.838Z,98714.98
2024-04-18T09:35:31.620Z,98707.45
2024-04-18T09:42:01.790Z,98710.04
2024-04-18T09:45:08.062Z,98710.73
2024-04-18T09:48:16.878Z,98709.55
2024-04-18T09:51:21.783Z,98706.39
2024-04-18T09:54:24.034Z,98712.09
2024-04-18T09:57:29.185Z,98708.45
2024-04-18T10:00:37.326Z,98708.20
2024-04-18T10:03:39.599Z,98709.34
2024-04-18T10:06:42.501Z,98700.25
2024-04-18T10:09:49.710Z,98701.83
2024-04-18T10:13:12.122Z,98701.55
2024-04-18T10:16:14.814Z,98695.08
2024-04-18T10:19:24.023Z,98697.02
2024-04-18T10:22:45.226Z,98703.42
2024-04-18T10:25:49.175Z,98703.45
2024-04-18T10:28:50.919Z,98705.79
2024-04-18T10:31:53.573Z,98718.27
2024-04-18T10:35:00.800Z,98719.61
2024-04-18T10:38:02.380Z,98719.96
2024-04-18T10:41:04.830Z,98718.23
2024-04-18T10:44:09.095Z,98717.30
2024-04-18T10:47:10.611Z,98718.73
2024-04-18T10:50:19.144Z,98721.51
2024-04-18T10:53:23.244Z,98719.56
2024-04-18T10:56:24.761Z,98717.65
2024-04-18T10:59:26.259Z,98712.42
2024-04-18T11:02:33.984Z,98712.98
2024-04-18T11:05:35.742Z,98717.64
2024-04-18T11:08:37.266Z,98716.38
2024-04-18T11:11:38.767Z,98714.88
2024-04-18T11:14:40.442Z,98718.23
2024-04-18T11:17:42.132Z,98716.13
2024-04-18T11:20:46.405Z,98725.20
2024-04-18T11:23:59.312Z,98736.22
2024-04-18T11:27:03.990Z,98741.64
2024-04-18T11:30:06.460Z,98749.15
2024-04-18T11:33:11.142Z,98751.70
2024-04-18T11:36:14.660Z,98758.31
2024-04-18T11:39:16.117Z,98757.85
2024-04-18T11:42:17.592Z,98763.08
2024-04-18T11:45:19.097Z,98764.67
2024-04-18T11:48:39.887Z,98766.81
2024-04-18T11:51:42.733Z,98765.66
2024-04-18T11:54:44.102Z,98767.70
2024-04-18T11:57:48.176Z,98762.35
2024-04-18T12:01:11.250Z,98759.84
2024-04-18T12:04:12.840Z,98756.01
2024-04-18T12:07:14.286Z,98753.52
2024-04-18T12:10:15.760Z,98752.16
2024-04-18T12:13:18.377Z,98750.84
2024-04-18T12:16:19.830Z,98757.21
2024-04-18T12:19:23.630Z,98756.61
2024-04-18T12:22:25.027Z,98757.55
2024-04-18T12:25:26.507Z,98760.11
2024-04-18T12:28:30.426Z,98758.27
2024-04-18T12:31:34.623Z,98762.20
2024-04-18T12:34:38.866Z,98764.15
2024-04-18T12:37:50.868Z,98758.79
2024-04-18T12:40:52.247Z,98764.72
2024-04-18T12:43:55.007Z,98762.27
2024-04-18T12:46:56.464Z,98766.61
2024-04-18T12:49:57.933Z,98765.71
2024-04-18T12:52:59.316Z,98765.81
2024-04-18T12:56:00.782Z,98765.58
2024-04-18T12:59:02.428Z,98764.81
2024-04-18T13:02:04.056Z,98763.09
2024-04-18T13:05:05.601Z,98766.60
2024-04-18T13:08:17.277Z,98761.95
2024-04-18T13:11:33.010Z,98765.67
2024-04-18T13:14:34.437Z,98768.73
2024-04-18T13:17:35.965Z,98769.69
2024-04-18T13:20:37.797Z,98767.10
2024-04-18T13:23:39.556Z,98765.02
2024-04-18T13:26:41.030Z,98767.20
2024-04-18T13:29:42.441Z,98766.33
2024-04-18T13:32:43.930Z,98764.63
2024-04-18T13:35:47.257Z,98767.98
2024-04-18T13:38:49.576Z,98769.27
2024-04-18T13:41:52.256Z,98763.70
2024-04-18T13:44:54.563Z,98758.44
2024-04-18T13:48:03.453Z,98762.67
2024-04-18T13:51:05.151Z,98760.61
2024-04-18T13:54:06.694Z,98760.74
2024-04-18T13:57:08.221Z,98757.16
2024-04-18T14:00:10.324Z,98753.54
2024-04-18T14:03:11.972Z,98750.96
2024-04-18T14:06:13.512Z,98758.33
2024-04-18T14:09:15.034Z,98761.62
2024-04-18T14:12:16.582Z,98759.75
2024-04-18T14:15:20.093Z,98761.77
2024-04-18T14:18:21.629Z,98763.85
2024-04-18T14:21:23.136Z,98763.09
2024-04-18T14:24:24.819Z,98762.36
2024-04-18T14:27:27.499Z,98766.30
2024-04-18T14:30:30.386Z,98766.33
2024-04-18T14:33:31.848Z,98765.16
2024-04-18T14:36:33.333Z,98764.48
2024-04-18T14:39:34.732Z,98765.79
2024-04-18T14:42:36.251Z,98769.72
2024-04-18T14:45:37.915Z,98771.36
2024-04-18T14:48:47.649Z,98772.23
2024-04-18T14:51:53.511Z,98775.11
2024-04-18T14:54:57.609Z,98779.20
2024-04-18T14:58:04.836Z,98779.98
2024-04-18T15:01:06.261Z,98776.08
2024-04-18T15:04:10.383Z,98780.30
2024-04-18T15:07:11.846Z,98785.52
2024-04-18T15:10:13.469Z,98791.88
2024-04-18T15:13:15.049Z,98792.58
2024-04-18T15:16:18.719Z,98788.59
2024-04-18T15:19:20.376Z,98786.46
2024-04-18T15:22:21.908Z,98788.67
2024-04-18T15:25:41.108Z,98787.63
2024-04-18T15:28:46.944Z,98789.13
2024-04-18T15:31:48.856Z,98786.42
2024-04-18T15:34:50.887Z,98792.48
2024-04-18T15:37:54.540Z,98796.50
2024-04-18T15:40:57.886Z,98798.96
2024-04-18T15:44:02.344Z,98800.54
2024-04-18T15:47:03.956Z,98803.80
2024-04-18T15:50:05.790Z,98801.77
2024-04-18T15:53:07.852Z,98804.96
2024-04-18T15:56:09.425Z,98806.31
2024-04-18T15:59:10.980Z,98813.09
2024-04-18T16:02:12.647Z,98816.48
2024-04-18T16:05:14.164Z,98823.98
2024-04-18T16:08:15.919Z,98824.56
2024-04-18T16:11:17.634Z,98824.10
2024-04-18T16:14:25.101Z,98825.85
2024-04-18T16:17:26.502Z,98830.52
2024-04-18T16:20:28.012Z,98828.48
2024-04-18T16:23:29.462Z,98831.95
2024-04-18T16:26:30.769Z,98834.35
2024-04-18T16:29:32.179Z,98836.35
2024-04-18T16:32:33.539Z,98840.77
2024-04-18T16:35:38.163Z,98843.30
2024-04-18T16:38:39.851Z,98847.38
2024-04-18T16:41:41.776Z,98856.15
2024-04-18T16:44:43.382Z,98858.78
2024-04-18T16:47:44.854Z,98861.11
2024-04-18T16:50:46.217Z,98865.93
2024-04-18T16:53:51.517Z,98871.46
2024-04-18T16:56:52.934Z,98872.61
2024-04-18T16:59:54.265Z,98875.33
2024-04-18T17:02:55.700Z,98874.84
2024-04-18T17:06:03.399Z,98877.82
2024-04-18T17:09:07.095Z,98881.99
2024-04-18T17:12:08.780Z,98881.20
2024-04-18T17:15:10.190Z,98886.65
2024-04-18T17:18:18.768Z,98886.87
2024-04-18T17:21:20.326Z,98886.90
2024-04-18T17:24:21.630Z,98889.83
2024-04-18T17:27:23.118Z,98888.87
2024-04-18T17:30:24.483Z,98892.55
2024-04-18T17:33:26.119Z,98890.95
2024-04-18T17:36:27.423Z,98894.33
2024-04-18T17:39:29.015Z,98899.74
2024-04-18T17:42:30.485Z,98905.30
2024-04-18T17:45:31.906Z,98911.17
2024-04-18T17:48:33.735Z,98917.02
2024-04-18T17:51:35.296Z,98920.45
2024-04-18T17:54:36.715Z,98921.86
2024-04-18T17:57:38.143Z,98922.83
2024-04-18T18:00:39.750Z,98924.59
2024-04-18T18:03:41.250Z,98926.94
2024-04-18T18:06:42.846Z,98932.21
2024-04-18T18:09:44.386Z,98933.80
2024-04-18T18:12:46.018Z,98939.00
2024-04-18T18:15:47.421Z,98938.30
2024-04-18T18:18:49.099Z,98941.39
2024-04-18T18:22:00.988Z,98939.69
2024-04-18T18:25:06.712Z,98942.73
2024-04-18T18:28:08.086Z,98951.31
2024-04-18T18:31:09.448Z,98953.58
2024-04-18T18:34:16.094Z,98948.90
2024-04-18T18:37:17.579Z,98954.77
2024-04-18T18:40:19.015Z,98955.65
2024-04-18T18:43:20.454Z,98957.81
2024-04-18T18:46:21.787Z,98957.61
2024-04-18T18:49:23.289Z,98959.02
2024-04-18T18:52:24.594Z,98965.33
2024-04-18T18:55:28.764Z,98965.93
2024-04-18T18:58:43.952Z,98963.84
2024-04-18T19:01:51.953Z,98965.16
2024-04-18T19:04:53.492Z,98969.52
2024-04-18T19:07:54.920Z,98968.40
2024-04-18T19:10:56.657Z,98972.69
2024-04-18T19:13:58.407Z,98973.94
2024-04-18T19:16:59.848Z,98979.09
2024-04-18T19:20:01.645Z,98982.08
2024-04-18T19:23:05.057Z,98982.52
2024-04-18T19:26:06.736Z,98989.23
2024-04-18T19:29:08.087Z,98985.90
2024-04-18T19:32:09.494Z,98991.06
2024-04-18T19:35:13.695Z,98994.30
2024-04-18T19:38:16.940Z,98997.55
2024-04-18T19:41:18.503Z,98997.38
2024-04-18T19:44:19.858Z,98997.65
2024-04-18T19:47:24.761Z,98996.19
2024-04-18T19:50:27.134Z,98996.31
2024-04-18T19:53:28.553Z,98998.55
2024-04-18T19:56:30.076Z,99000.92
2024-04-18T19:59:31.611Z,98997.34
2024-04-18T20:02:33.016Z,98997.08
2024-04-18T20:05:35.468Z,98997.55
2024-04-18T20:08:36.818Z,99000.13
2024-04-18T20:11:38.274Z,98997.29
2024-04-18T20:14:39.677Z,99005.83
2024-04-18T20:17:41.213Z,99007.09
2024-04-18T20:20:42.809Z,99009.31
2024-04-18T20:23:44.295Z,99008.83
2024-04-18T20:26:45.622Z,99011.39
2024-04-18T20:29:47.365Z,99014.35
2024-04-18T20:32:48.930Z,99014.27
2024-04-18T20:35:50.351Z,99014.29
2024-04-18T20:38:51.725Z,99017.75
2024-04-18T20:41:53.128Z,99023.06
2024-04-18T20:44:54.546Z,99024.83
2024-04-18T20:47:55.981Z,99021.41
2024-04-18T20:50:57.354Z,99019.86
2024-04-18T20:53:58.726Z,99019.88
2024-04-18T20:57:00.060Z,99022.31
2024-04-18T21:00:01.547Z,99022.84
2024-04-18T21:03:03.105Z,99026.58
2024-04-18T21:06:04.648Z,99022.13
2024-04-18T21:09:06.165Z,99026.46
2024-04-18T21:12:07.832Z,99031.77
2024-04-18T21:15:09.212Z,99032.81
2024-04-18T21:18:10.967Z,99033.77
2024-04-18T21:21:12.438Z,99038.98
2024-04-18T21:24:14.119Z,99039.59
2024-04-18T21:27:15.466Z,99037.94
2024-04-18T21:30:17.227Z,99040.06
2024-04-18T21:33:18.816Z,99042.75
2024-04-18T21:36:20.535Z,99046.01
2024-04-18T21:39:21.983Z,99046.58
2024-04-18T21:42:23.635Z,99050.34
2024-04-18T21:45:25.198Z,99048.41
2024-04-18T21:48:27.227Z,99050.25
2024-04-18T21:51:29.255Z,99045.63
2024-04-18T21:54:30.764Z,99045.42
2024-04-18T21:57:32.266Z,99044.21
2024-04-18T22:00:33.865Z,99047.33
2024-04-18T22:03:35.836Z,99048.45
2024-04-18T22:06:37.481Z,99050.89
2024-04-18T22:09:38.902Z,99057.30
2024-04-18T22:12:40.474Z,99060.05
2024-04-18T22:15:42.036Z,99061.27
2024-04-18T22:18:43.694Z,99062.00
2024-04-18T22:21:45.235Z,99064.71
2024-04-18T22:24:46.785Z,99067.65
2024-04-18T22:27:48.322Z,99067.30
2024-04-18T22:31:00.036Z,99068.63
2024-04-18T22:34:01.531Z,99067.19
2024-04-18T22:37:03.067Z,99066.58
2024-04-18T22:40:05.060Z,99066.73
2024-04-18T22:43:06.501Z,99068.08
2024-04-18T22:46:08.027Z,99069.25
2024-04-18T22:49:09.564Z,99070.27
2024-04-18T22:52:11.010Z,99066.48
2024-04-18T22:55:12.499Z,99067.26
2024-04-18T22:58:14.002Z,99068.41
2024-04-18T23:01:15.652Z,99070.42
2024-04-18T23:04:17.359Z,99067.45
2024-04-18T23:07:18.915Z,99068.09
2024-04-18T23:10:20.447Z,99068.20
2024-04-18T23:13:21.887Z,99068.84
2024-04-18T23:16:23.657Z,99071.36
2024-04-18T23:19:25.170Z,99067.24
2024-04-18T23:22:26.770Z,99064.48
2024-04-18T23:25:28.473Z,99063.67
2024-04-18T23:28:29.933Z,99060.84
2024-04-18T23:31:31.373Z,99062.73
2024-04-18T23:34:32.976Z,99063.61
2024-04-18T23:37:34.498Z,99061.55
2024-04-18T23:40:36.002Z,99066.16
2024-04-18T23:43:37.537Z,99064.29
2024-04-18T23:46:40.522Z,99061.36
2024-04-18T23:49:41.959Z,99060.29
2024-04-18T23:53:02.504Z,99058.52
2024-04-18T23:56:22.869Z,99057.40
2024-04-18T23:59:24.428Z,99057.34
